createdAt,value
2022-09-28T00:01:32.624Z,27.68
2022-09-28T00:03:36.996Z,27.84
2022-09-28T00:05:40.824Z,27.97
2022-09-28T00:07:44.750Z,28.00
2022-09-28T00:09:48.272Z,27.52
2022-09-28T00:11:52.432Z,27.35
2022-09-28T00:14:02.497Z,27.59
2022-09-28T00:16:11.844Z,27.65
2022-09-28T00:18:18.371Z,27.82
2022-09-28T00:20:23.846Z,28.27
2022-09-28T00:22:27.487Z,28.27
2022-09-28T00:24:31.638Z,28.69
2022-09-28T00:26:35.492Z,29.51
2022-09-28T00:28:39.078Z,29.07
2022-09-28T00:30:46.342Z,29.00
2022-09-28T00:32:50.267Z,28.96
2022-09-28T00:34:53.710Z,29.03
2022-09-28T00:36:57.460Z,28.94
2022-09-28T00:39:04.749Z,29.13
2022-09-28T00:41:09.459Z,29.18
2022-09-28T00:43:22.241Z,29.33
2022-09-28T00:45:28.855Z,29.76
2022-09-28T00:47:42.213Z,29.76
2022-09-28T00:50:09.182Z,29.74
2022-09-28T00:52:16.267Z,30.02
2022-09-28T00:54:19.907Z,29.92
2022-09-28T00:56:28.539Z,30.09
2022-09-28T00:58:38.226Z,30.03
2022-09-28T01:00:43.107Z,30.52
2022-09-28T01:02:47.655Z,30.71
2022-09-28T01:04:51.862Z,30.63
2022-09-28T01:06:57.299Z,30.56
2022-09-28T01:09:06.024Z,30.63
2022-09-28T01:11:10.437Z,30.92
2022-09-28T01:13:15.765Z,30.96
2022-09-28T01:15:22.913Z,30.99
2022-09-28T01:17:46.756Z,31.24
2022-09-28T01:20:22.433Z,31.45
2022-09-28T01:22:44.289Z,31.64
2022-09-28T01:24:48.789Z,32.09
2022-09-28T01:27:02.341Z,31.67
2022-09-28T01:29:18.848Z,31.52
2022-09-28T01:31:23.860Z,31.40
2022-09-28T01:33:32.440Z,31.88
2022-09-28T01:35:36.601Z,31.95
2022-09-28T01:37:48.329Z,32.05
2022-09-28T01:39:56.986Z,32.04
2022-09-28T01:42:03.048Z,32.28
2022-09-28T01:44:09.771Z,32.14
2022-09-28T01:46:16.375Z,32.38
2022-09-28T01:48:32.508Z,31.97
2022-09-28T01:50:42.509Z,32.39
2022-09-28T01:52:53.697Z,32.30
2022-09-28T01:55:15.516Z,32.41
2022-09-28T01:57:37.436Z,32.70
2022-09-28T01:59:44.856Z,32.83
2022-09-28T02:01:57.353Z,33.08
2022-09-28T02:04:08.273Z,34.94
2022-09-28T02:06:19.899Z,35.18
2022-09-28T02:08:31.229Z,33.96
2022-09-28T02:10:40.000Z,33.57
2022-09-28T02:13:04.152Z,33.52
2022-09-28T02:15:13.756Z,33.39
2022-09-28T02:17:17.445Z,33.25
2022-09-28T02:19:25.372Z,33.27
2022-09-28T02:21:45.815Z,33.05
2022-09-28T02:23:59.975Z,32.91
2022-09-28T02:26:06.938Z,32.86
2022-09-28T02:28:12.653Z,33.28
2022-09-28T02:30:17.646Z,33.19
2022-09-28T02:32:25.395Z,32.13
2022-09-28T02:34:29.446Z,32.51
2022-09-28T02:36:34.159Z,32.56
2022-09-28T02:38:38.584Z,32.34
2022-09-28T02:40:45.343Z,32.44
2022-09-28T02:43:02.941Z,32.45
2022-09-28T02:45:15.865Z,32.83
2022-09-28T02:47:29.305Z,32.23
2022-09-28T02:49:34.035Z,32.09
2022-09-28T02:51:50.428Z,32.15
2022-09-28T02:53:55.347Z,32.13
2022-09-28T02:55:59.700Z,31.97
2022-09-28T02:58:13.547Z,32.12
2022-09-28T03:00:21.668Z,32.15
2022-09-28T03:02:45.525Z,32.21
2022-09-28T03:05:15.906Z,32.85
2022-09-28T03:07:35.739Z,32.01
2022-09-28T03:09:47.461Z,32.23
2022-09-28T03:11:54.655Z,32.57
2022-09-28T03:13:59.769Z,32.39
2022-09-28T03:16:17.876Z,32.29
2022-09-28T03:18:24.056Z,32.51
2022-09-28T03:20:28.958Z,32.37
2022-09-28T03:22:32.996Z,32.56
2022-09-28T03:24:36.767Z,32.77
2022-09-28T03:26:40.757Z,33.00
2022-09-28T03:28:44.942Z,32.87
2022-09-28T03:30:54.164Z,32.65
2022-09-28T03:32:59.467Z,33.10
2022-09-28T03:35:06.523Z,32.93
2022-09-28T03:37:10.494Z,33.17
2022-09-28T03:39:14.012Z,33.62
2022-09-28T03:41:17.734Z,33.51
2022-09-28T03:43:21.476Z,33.52
2022-09-28T03:45:25.799Z,33.79
2022-09-28T03:47:29.362Z,34.51
2022-09-28T03:49:35.012Z,34.63
2022-09-28T03:51:38.622Z,34.76
2022-09-28T03:53:42.299Z,34.83
2022-09-28T03:55:45.839Z,35.38
2022-09-28T03:57:55.088Z,35.28
2022-09-28T03:59:59.874Z,35.27
2022-09-28T04:02:06.043Z,35.40
2022-09-28T04:04:12.270Z,35.98
2022-09-28T04:06:16.763Z,36.05
2022-09-28T04:08:20.729Z,35.76
2022-09-28T04:10:29.136Z,36.11
2022-09-28T04:12:32.794Z,36.65
2022-09-28T04:14:36.275Z,36.05
2022-09-28T04:16:40.782Z,36.37
2022-09-28T04:18:48.774Z,36.28
2022-09-28T04:21:14.064Z,36.51
2022-09-28T04:23:24.508Z,36.70
2022-09-28T04:25:28.188Z,36.73
2022-09-28T04:28:08.307Z,36.57
2022-09-28T04:30:15.901Z,36.73
2022-09-28T04:32:23.061Z,37.44
2022-09-28T04:34:31.907Z,37.50
2022-09-28T04:36:38.292Z,38.03
2022-09-28T04:38:52.909Z,37.91
2022-09-28T04:40:59.017Z,38.37
2022-09-28T04:43:03.200Z,38.55
2022-09-28T04:45:07.228Z,39.92
2022-09-28T04:47:14.415Z,40.48
2022-09-28T04:49:38.114Z,41.00
2022-09-28T04:51:46.846Z,40.13
2022-09-28T04:53:50.366Z,39.93
2022-09-28T04:56:01.988Z,42.77
2022-09-28T04:58:06.423Z,41.93
2022-09-28T05:00:11.605Z,42.71
2022-09-28T05:02:17.141Z,41.93
2022-09-28T05:05:00.105Z,42.77
2022-09-28T05:07:25.541Z,43.78
2022-09-28T05:09:29.114Z,45.77
2022-09-28T05:11:32.522Z,45.05
2022-09-28T05:13:42.762Z,46.04
2022-09-28T05:15:46.593Z,47.28
2022-09-28T05:17:50.405Z,47.40
2022-09-28T05:20:25.880Z,47.71
2022-09-28T05:22:29.785Z,48.17
2022-09-28T05:24:33.557Z,49.05
2022-09-28T05:26:40.437Z,48.94
2022-09-28T05:28:46.423Z,49.44
2022-09-28T05:31:08.582Z,50.79
2022-09-28T05:33:40.471Z,53.96
2022-09-28T05:35:52.496Z,52.84
2022-09-28T05:37:57.898Z,54.08
2022-09-28T05:40:01.858Z,54.33
2022-09-28T05:42:06.254Z,54.57
2022-09-28T05:44:09.952Z,54.27
2022-09-28T05:46:13.969Z,55.97
2022-09-28T05:48:18.549Z,57.39
2022-09-28T05:50:22.105Z,56.67
2022-09-28T05:52:25.992Z,58.36
2022-09-28T05:54:30.423Z,61.81
2022-09-28T05:56:34.613Z,60.85
2022-09-28T05:58:41.122Z,59.52
2022-09-28T06:00:46.256Z,60.39
2022-09-28T06:02:59.734Z,59.97
2022-09-28T06:05:04.399Z,63.39
2022-09-28T06:07:10.839Z,64.77
2022-09-28T06:09:14.681Z,60.68
2022-09-28T06:11:34.564Z,58.80
2022-09-28T06:13:46.701Z,60.15
2022-09-28T06:15:50.342Z,57.07
2022-09-28T06:18:00.396Z,56.90
2022-09-28T06:20:30.770Z,54.62
2022-09-28T06:22:45.390Z,53.21
2022-09-28T06:24:49.005Z,54.20
2022-09-28T06:26:52.580Z,51.48
2022-09-28T06:28:57.232Z,52.36
2022-09-28T06:31:09.578Z,50.66
2022-09-28T06:33:21.225Z,51.02
2022-09-28T06:35:26.470Z,50.98
2022-09-28T06:37:30.053Z,51.67
2022-09-28T06:39:34.450Z,50.99
2022-09-28T06:41:37.908Z,50.69
2022-09-28T06:43:50.700Z,50.34
2022-09-28T06:46:20.278Z,50.31
2022-09-28T06:48:26.469Z,51.19
2022-09-28T06:50:34.557Z,50.59
2022-09-28T06:52:58.298Z,51.79
2022-09-28T06:55:20.102Z,51.56
2022-09-28T06:57:29.761Z,52.06
2022-09-28T06:59:33.408Z,52.27
2022-09-28T07:01:40.659Z,51.67
2022-09-28T07:03:55.787Z,51.43
2022-09-28T07:06:19.341Z,52.92
2022-09-28T07:08:41.761Z,51.62
2022-09-28T07:11:08.906Z,57.49
2022-09-28T07:13:46.550Z,58.00
2022-09-28T07:15:45.722Z,59.11
2022-09-28T07:18:00.494Z,61.63
2022-09-28T07:20:16.934Z,57.99
2022-09-28T07:22:35.923Z,58.25
2022-09-28T07:24:48.910Z,57.91
2022-09-28T07:27:11.019Z,63.49
2022-09-28T07:29:49.004Z,62.61
2022-09-28T07:32:07.096Z,62.02
2022-09-28T07:34:30.521Z,62.15
2022-09-28T07:36:44.985Z,66.79
2022-09-28T07:38:51.486Z,66.66
2022-09-28T07:41:13.558Z,67.72
2022-09-28T07:43:22.530Z,68.90
2022-09-28T07:45:31.296Z,69.29
2022-09-28T07:47:36.164Z,68.13
2022-09-28T07:49:52.231Z,67.91
2022-09-28T07:52:29.626Z,67.52
2022-09-28T07:55:03.339Z,66.89
2022-09-28T07:57:27.901Z,67.25
2022-09-28T07:59:47.133Z,68.79
2022-09-28T08:02:21.741Z,70.56
2022-09-28T08:04:28.900Z,70.58
2022-09-28T08:06:32.595Z,71.58
2022-09-28T08:08:36.668Z,71.67
2022-09-28T08:10:44.443Z,71.94
2022-09-28T08:13:04.793Z,73.31
2022-09-28T08:15:19.532Z,70.78
2022-09-28T08:17:28.931Z,73.21
2022-09-28T08:19:53.891Z,72.17
2022-09-28T08:21:57.410Z,74.85
2022-09-28T08:24:01.272Z,74.85
2022-09-28T08:26:04.683Z,73.53
2022-09-28T08:28:08.956Z,74.60
2022-09-28T08:30:21.030Z,74.55
2022-09-28T08:32:50.436Z,74.65
2022-09-28T08:35:12.403Z,75.54
2022-09-28T08:37:29.240Z,73.71
2022-09-28T08:39:38.699Z,73.68
2022-09-28T08:42:29.664Z,72.78
2022-09-28T08:45:09.009Z,73.60
2022-09-28T08:48:00.971Z,76.21
2022-09-28T08:50:17.693Z,72.45
2022-09-28T08:52:40.658Z,73.50
2022-09-28T08:55:37.964Z,74.16
2022-09-28T08:57:52.077Z,75.48
2022-09-28T08:59:58.389Z,75.50
2022-09-28T09:02:23.515Z,77.66
2022-09-28T09:04:28.571Z,78.84
2022-09-28T09:07:10.288Z,78.70
2022-09-28T09:09:17.596Z,78.58
2022-09-28T09:11:21.782Z,79.47
2022-09-28T09:13:41.876Z,79.45
2022-09-28T09:16:05.398Z,79.95
2022-09-28T09:18:35.336Z,80.14
2022-09-28T09:20:53.462Z,81.21
2022-09-28T09:23:54.092Z,79.34
2022-09-28T09:26:02.196Z,80.13
2022-09-28T09:28:16.150Z,80.86
2022-09-28T09:30:21.822Z,80.12
2022-09-28T09:32:44.616Z,80.57
2022-09-28T09:34:48.127Z,80.61
2022-09-28T09:37:19.827Z,82.09
2022-09-28T09:39:31.436Z,81.74
2022-09-28T09:42:05.041Z,82.66
2022-09-28T09:44:33.988Z,83.63
2022-09-28T09:47:07.110Z,85.02
2022-09-28T09:49:44.461Z,85.39
2022-09-28T09:52:02.909Z,86.56
2022-09-28T09:54:18.964Z,87.39
2022-09-28T09:56:30.597Z,84.89
2022-09-28T09:59:35.354Z,86.94
2022-09-28T10:01:54.300Z,87.56
2022-09-28T10:04:19.101Z,88.53
2022-09-28T10:06:34.323Z,87.70
2022-09-28T10:08:43.030Z,87.29
2022-09-28T10:10:52.790Z,85.90
2022-09-28T10:12:57.995Z,85.33
2022-09-28T10:15:04.077Z,84.72
2022-09-28T10:17:13.203Z,84.47
2022-09-28T10:19:35.952Z,85.15
2022-09-28T10:22:00.173Z,85.12
2022-09-28T10:24:05.915Z,85.40
2022-09-28T10:26:25.630Z,83.61
2022-09-28T10:28:56.086Z,85.52
2022-09-28T10:31:00.327Z,85.56
2022-09-28T10:33:04.153Z,84.25
2022-09-28T10:35:20.385Z,85.90
2022-09-28T10:37:28.016Z,87.07
2022-09-28T10:39:56.338Z,85.57
2022-09-28T10:42:05.865Z,85.80
2022-09-28T10:44:18.981Z,85.81
2022-09-28T10:46:35.779Z,86.50
2022-09-28T10:49:02.563Z,87.01
2022-09-28T10:51:08.572Z,85.73
2022-09-28T10:53:13.656Z,85.64
2022-09-28T10:56:03.918Z,84.02
2022-09-28T10:58:43.888Z,83.84
2022-09-28T11:00:54.472Z,84.06
2022-09-28T11:03:00.838Z,83.01
2022-09-28T11:05:07.182Z,82.68
2022-09-28T11:07:20.942Z,84.78
2022-09-28T11:09:31.036Z,84.84
2022-09-28T11:11:43.853Z,84.83
2022-09-28T11:13:55.015Z,84.16
2022-09-28T11:16:02.128Z,85.68
2022-09-28T11:18:40.191Z,84.78
2022-09-28T11:20:46.253Z,86.31
2022-09-28T11:22:53.365Z,85.58
2022-09-28T11:25:19.259Z,85.30
2022-09-28T11:27:24.523Z,85.02
2022-09-28T11:29:36.141Z,86.41
2022-09-28T11:32:04.684Z,87.94
2022-09-28T11:34:31.468Z,87.76
2022-09-28T11:37:03.152Z,87.66
2022-09-28T11:39:18.699Z,89.07
2022-09-28T11:41:35.399Z,88.25
2022-09-28T11:43:39.294Z,88.57
2022-09-28T11:46:00.436Z,88.10
2022-09-28T11:48:09.971Z,88.77
2022-09-28T11:50:27.281Z,88.52
2022-09-28T11:52:34.983Z,88.60
2022-09-28T11:54:48.419Z,89.14
2022-09-28T11:56:54.906Z,89.96
2022-09-28T11:59:01.966Z,90.31
2022-09-28T12:01:39.074Z,90.95
2022-09-28T12:03:58.599Z,90.78
2022-09-28T12:06:03.788Z,91.19
2022-09-28T12:08:14.717Z,92.46
2022-09-28T12:10:45.279Z,92.98
2022-09-28T12:12:56.928Z,94.96
2022-09-28T12:15:04.156Z,97.76
2022-09-28T12:17:19.980Z,96.55
2022-09-28T12:19:29.048Z,95.86
2022-09-28T12:21:42.195Z,97.25
2022-09-28T12:23:46.568Z,99.10
2022-09-28T12:25:53.041Z,98.43
2022-09-28T12:28:33.463Z,97.94
2022-09-28T12:30:41.693Z,97.88
2022-09-28T12:32:54.500Z,97.03
2022-09-28T12:34:59.031Z,98.23
2022-09-28T12:37:05.415Z,99.39
2022-09-28T12:39:30.686Z,100.00
2022-09-28T12:41:52.053Z,98.84
2022-09-28T12:43:56.169Z,99.15
2022-09-28T12:46:11.927Z,98.64
2022-09-28T12:48:16.463Z,95.12
2022-09-28T12:50:39.006Z,96.09
2022-09-28T12:52:58.120Z,92.40
2022-09-28T12:55:07.644Z,89.14
2022-09-28T12:57:20.518Z,88.24
2022-09-28T12:59:24.046Z,85.65
2022-09-28T13:01:46.150Z,84.94
2022-09-28T13:04:00.827Z,84.06
2022-09-28T13:06:13.950Z,82.51
2022-09-28T13:08:17.643Z,83.67
2022-09-28T13:10:33.557Z,83.07
2022-09-28T13:12:40.224Z,81.95
2022-09-28T13:14:55.652Z,81.21
2022-09-28T13:17:20.782Z,80.32
2022-09-28T13:19:27.756Z,80.11
2022-09-28T13:21:35.090Z,79.57
2022-09-28T13:24:14.852Z,78.59
2022-09-28T13:26:29.133Z,76.07
2022-09-28T13:28:34.100Z,75.95
2022-09-28T13:30:40.657Z,76.16
2022-09-28T13:32:48.001Z,74.51
2022-09-28T13:34:51.621Z,73.77
2022-09-28T13:37:11.059Z,73.59
2022-09-28T13:39:33.815Z,71.74
2022-09-28T13:41:39.070Z,70.32
2022-09-28T13:43:57.189Z,67.92
2022-09-28T13:46:06.924Z,69.54
2022-09-28T13:48:25.968Z,68.92
2022-09-28T13:50:39.738Z,66.30
2022-09-28T13:52:46.299Z,65.82
2022-09-28T13:55:04.772Z,64.26
2022-09-28T13:57:19.319Z,64.76
2022-09-28T13:59:33.358Z,63.95
2022-09-28T14:01:44.076Z,63.88
2022-09-28T14:04:11.303Z,60.66
2022-09-28T14:06:25.421Z,59.39
2022-09-28T14:08:46.116Z,59.30
2022-09-28T14:10:52.792Z,59.79
2022-09-28T14:12:56.594Z,58.37
2022-09-28T14:15:01.559Z,57.97
2022-09-28T14:17:20.896Z,57.67
2022-09-28T14:19:33.285Z,54.86
2022-09-28T14:21:54.860Z,55.17
2022-09-28T14:24:21.220Z,54.65
2022-09-28T14:26:43.071Z,54.80
2022-09-28T14:29:10.813Z,54.57
2022-09-28T14:31:22.868Z,52.54
2022-09-28T14:33:33.917Z,53.04
2022-09-28T14:35:42.222Z,52.45
2022-09-28T14:38:07.621Z,50.55
2022-09-28T14:40:40.610Z,50.82
2022-09-28T14:43:04.014Z,50.09
2022-09-28T14:45:10.701Z,49.91
2022-09-28T14:47:27.516Z,49.94
2022-09-28T14:49:38.257Z,49.37
2022-09-28T14:51:42.414Z,48.78
2022-09-28T14:53:46.883Z,49.90
2022-09-28T14:55:52.868Z,48.78
2022-09-28T14:57:58.200Z,49.10
2022-09-28T15:00:09.112Z,47.37
2022-09-28T15:02:15.015Z,46.89
2022-09-28T15:04:19.343Z,45.90
2022-09-28T15:06:24.306Z,45.51
2022-09-28T15:08:37.391Z,44.52
2022-09-28T15:10:46.543Z,44.43
2022-09-28T15:12:54.701Z,44.24
2022-09-28T15:15:03.753Z,44.86
2022-09-28T15:17:11.682Z,45.15
2022-09-28T15:19:22.144Z,44.71
2022-09-28T15:21:32.884Z,43.52
2022-09-28T15:23:37.936Z,43.83
2022-09-28T15:25:41.447Z,42.48
2022-09-28T15:27:44.945Z,43.31
2022-09-28T15:30:01.437Z,42.20
2022-09-28T15:32:05.912Z,42.13
2022-09-28T15:34:45.957Z,41.83
2022-09-28T15:36:53.911Z,40.83
2022-09-28T15:38:57.627Z,40.85
2022-09-28T15:41:03.809Z,39.64
2022-09-28T15:43:27.988Z,40.86
2022-09-28T15:45:38.571Z,40.02
2022-09-28T15:47:45.927Z,39.26
2022-09-28T15:50:00.341Z,39.01
2022-09-28T15:52:07.188Z,38.54
2022-09-28T15:54:20.452Z,39.18
2022-09-28T15:56:24.544Z,39.45
2022-09-28T15:58:31.553Z,38.28
2022-09-28T16:00:35.665Z,38.92
2022-09-28T16:02:38.986Z,38.71
2022-09-28T16:04:42.734Z,39.78
2022-09-28T16:07:05.398Z,39.26
2022-09-28T16:09:28.591Z,38.09
2022-09-28T16:11:39.027Z,37.60
2022-09-28T16:14:05.470Z,37.67
2022-09-28T16:16:15.767Z,37.04
2022-09-28T16:18:22.514Z,38.50
2022-09-28T16:20:31.060Z,36.66
2022-09-28T16:22:34.585Z,37.56
2022-09-28T16:24:39.428Z,36.17
2022-09-28T16:26:42.959Z,36.73
2022-09-28T16:28:49.730Z,36.45
2022-09-28T16:31:19.086Z,36.10
2022-09-28T16:33:30.642Z,37.41
2022-09-28T16:35:50.664Z,36.99
2022-09-28T16:38:04.420Z,37.11
2022-09-28T16:40:08.257Z,36.06
2022-09-28T16:42:14.979Z,35.24
2022-09-28T16:44:22.049Z,36.21
2022-09-28T16:46:30.302Z,35.94
2022-09-28T16:48:36.342Z,35.06
2022-09-28T16:50:40.040Z,35.51
2022-09-28T16:53:02.292Z,36.05
2022-09-28T16:57:41.456Z,36.74
2022-09-28T16:59:44.964Z,36.02
2022-09-28T17:01:49.659Z,34.67
2022-09-28T17:03:53.344Z,34.65
2022-09-28T17:05:57.693Z,35.96
2022-09-28T17:08:02.756Z,34.12
2022-09-28T17:10:17.646Z,34.72
2022-09-28T17:12:24.111Z,34.54
2022-09-28T17:14:27.907Z,33.81
2022-09-28T17:18:58.219Z,33.47
2022-09-28T17:21:05.732Z,33.12
2022-09-28T17:23:09.304Z,33.45
2022-09-28T17:25:13.404Z,32.92
2022-09-28T17:27:20.066Z,32.80
2022-09-28T17:29:23.784Z,32.58
2022-09-28T17:31:30.169Z,32.09
2022-09-28T17:33:33.941Z,31.02
2022-09-28T17:35:39.744Z,31.13
2022-09-28T17:37:43.913Z,31.89
2022-09-28T17:39:47.681Z,31.92
2022-09-28T17:41:51.094Z,31.63
2022-09-28T17:43:56.781Z,31.28
2022-09-28T17:46:00.772Z,31.32
2022-09-28T17:48:04.989Z,30.11
2022-09-28T17:50:22.935Z,31.00
2022-09-28T17:52:26.722Z,30.76
2022-09-28T17:54:30.118Z,30.13
2022-09-28T17:56:34.084Z,30.60
2022-09-28T17:58:37.797Z,30.55
2022-09-28T18:00:42.153Z,29.84
2022-09-28T18:02:46.303Z,29.91
2022-09-28T18:04:52.569Z,31.25
2022-09-28T18:06:56.425Z,29.72
2022-09-28T18:08:59.901Z,29.78
2022-09-28T18:11:03.347Z,28.92
2022-09-28T18:13:06.997Z,31.48
2022-09-28T18:15:11.271Z,29.17
2022-09-28T18:17:14.996Z,29.51
2022-09-28T18:19:18.758Z,27.71
2022-09-28T18:21:22.416Z,27.74
2022-09-28T18:23:25.867Z,29.25
2022-09-28T18:25:31.082Z,27.50
2022-09-28T18:27:36.057Z,27.32
2022-09-28T18:29:39.903Z,27.54
2022-09-28T18:31:43.399Z,28.07
2022-09-28T18:33:49.295Z,28.61
2022-09-28T18:35:54.017Z,27.17
2022-09-28T18:37:57.673Z,29.72
2022-09-28T18:40:00.987Z,27.25
2022-09-28T18:42:05.183Z,27.94
2022-09-28T18:44:08.589Z,27.24
2022-09-28T18:46:12.955Z,26.63
2022-09-28T18:48:16.380Z,26.21
2022-09-28T18:50:19.910Z,26.78
2022-09-28T18:52:23.270Z,27.34
2022-09-28T18:54:28.370Z,28.04
2022-09-28T18:56:31.970Z,26.05
2022-09-28T18:58:36.985Z,26.31
2022-09-28T19:00:41.693Z,26.55
2022-09-28T19:02:45.929Z,26.40
2022-09-28T19:04:49.864Z,26.71
2022-09-28T19:06:55.288Z,26.44
2022-09-28T19:08:59.312Z,25.60
2022-09-28T19:11:13.876Z,25.40
2022-09-28T19:13:17.786Z,26.17
2022-09-28T19:15:23.583Z,26.51
2022-09-28T19:17:27.152Z,26.23
2022-09-28T19:19:31.082Z,26.37
2022-09-28T19:21:36.703Z,25.57
2022-09-28T19:23:40.876Z,27.42
2022-09-28T19:25:44.550Z,26.14
2022-09-28T19:27:49.035Z,25.15
2022-09-28T19:29:52.616Z,24.91
2022-09-28T19:31:57.965Z,25.16
2022-09-28T19:34:01.567Z,25.71
2022-09-28T19:36:07.126Z,24.91
2022-09-28T19:38:10.660Z,24.67
2022-09-28T19:40:14.485Z,24.89
2022-09-28T19:42:18.123Z,25.12
2022-09-28T19:44:26.263Z,26.25
2022-09-28T19:46:34.437Z,24.59
2022-09-28T19:48:38.368Z,24.30
2022-09-28T19:50:42.585Z,24.41
2022-09-28T19:52:46.583Z,24.18
2022-09-28T19:55:01.279Z,24.43
2022-09-28T19:57:16.231Z,24.18
2022-09-28T19:59:20.108Z,23.63
2022-09-28T20:01:23.861Z,24.02
2022-09-28T20:03:27.616Z,23.89
2022-09-28T20:05:31.202Z,23.61
2022-09-28T20:07:35.703Z,24.51
2022-09-28T20:09:39.233Z,25.23
2022-09-28T20:11:43.221Z,25.07
2022-09-28T20:13:46.999Z,24.36
2022-09-28T20:15:50.964Z,22.70
2022-09-28T20:17:55.232Z,23.94
2022-09-28T20:19:59.552Z,23.19
2022-09-28T20:22:03.893Z,23.12
2022-09-28T20:24:07.638Z,23.42
2022-09-28T20:26:14.906Z,22.56
2022-09-28T20:28:18.379Z,22.21
2022-09-28T20:30:22.233Z,22.56
2022-09-28T20:32:25.672Z,22.16
2022-09-28T20:34:29.228Z,22.01
2022-09-28T20:36:32.965Z,22.17
2022-09-28T20:38:40.345Z,22.03
2022-09-28T20:40:43.752Z,22.32
2022-09-28T20:42:47.786Z,22.10
2022-09-28T20:44:51.441Z,21.78
2022-09-28T20:46:55.047Z,21.92
2022-09-28T20:49:00.369Z,22.98
2022-09-28T20:51:12.335Z,22.92
2022-09-28T20:53:15.788Z,23.14
2022-09-28T20:55:19.425Z,22.11
2022-09-28T20:57:23.077Z,22.17
2022-09-28T20:59:30.012Z,22.50
2022-09-28T21:01:34.336Z,23.10
2022-09-28T21:03:39.039Z,21.89
2022-09-28T21:05:43.019Z,22.23
2022-09-28T21:07:46.671Z,22.39
2022-09-28T21:09:51.411Z,22.43
2022-09-28T21:11:55.208Z,22.72
2022-09-28T21:14:00.034Z,21.94
2022-09-28T21:16:06.537Z,21.93
2022-09-28T21:18:10.149Z,22.65
2022-09-28T21:20:14.289Z,21.50
2022-09-28T21:22:18.047Z,22.83
2022-09-28T21:24:21.753Z,21.26
2022-09-28T21:26:26.958Z,22.48
2022-09-28T21:28:30.572Z,20.96
2022-09-28T21:30:34.188Z,22.17
2022-09-28T21:32:38.554Z,22.13
2022-09-28T21:34:45.146Z,20.88
2022-09-28T21:36:52.167Z,21.46
2022-09-28T21:38:56.578Z,21.27
2022-09-28T21:41:01.321Z,20.81
2022-09-28T21:43:05.051Z,22.60
2022-09-28T21:45:09.619Z,21.48
2022-09-28T21:47:16.647Z,20.73
2022-09-28T21:49:21.130Z,20.85
2022-09-28T21:51:25.201Z,21.42
2022-09-28T21:53:30.532Z,21.06
2022-09-28T21:55:34.111Z,21.09
2022-09-28T21:57:39.615Z,21.08
2022-09-28T21:59:43.063Z,20.65
2022-09-28T22:01:49.706Z,21.10
2022-09-28T22:03:55.100Z,20.81
2022-09-28T22:06:02.327Z,21.85
2022-09-28T22:08:08.182Z,21.02
2022-09-28T22:10:13.613Z,21.48
2022-09-28T22:12:18.762Z,20.82
2022-09-28T22:14:22.231Z,20.70
2022-09-28T22:16:27.720Z,21.30
2022-09-28T22:18:32.115Z,21.44
2022-09-28T22:20:35.576Z,21.28
2022-09-28T22:22:39.314Z,21.34
2022-09-28T22:24:45.713Z,21.55
2022-09-28T22:26:49.412Z,22.01
2022-09-28T22:28:54.074Z,21.26
2022-09-28T22:30:58.260Z,21.14
2022-09-28T22:33:02.355Z,21.50
2022-09-28T22:35:06.625Z,21.53
2022-09-28T22:37:10.404Z,21.46
2022-09-28T22:39:14.259Z,21.37
2022-09-28T22:41:20.499Z,21.38
2022-09-28T22:43:25.020Z,21.48
2022-09-28T22:45:28.299Z,21.28
2022-09-28T22:47:32.077Z,21.44
2022-09-28T22:49:36.095Z,21.49
2022-09-28T22:51:39.994Z,21.26
2022-09-28T22:53:43.675Z,22.10
2022-09-28T22:55:47.394Z,21.28
2022-09-28T22:57:52.967Z,21.55
2022-09-28T22:59:56.657Z,21.77
2022-09-28T23:02:00.351Z,22.08
2022-09-28T23:04:07.124Z,22.65
2022-09-28T23:06:11.087Z,23.29
2022-09-28T23:08:15.147Z,23.61
2022-09-28T23:10:18.626Z,23.83
2022-09-28T23:12:22.240Z,23.87
2022-09-28T23:14:25.747Z,24.24
2022-09-28T23:16:35.173Z,24.42
2022-09-28T23:18:42.662Z,24.74
2022-09-28T23:20:53.543Z,24.77
2022-09-28T23:23:00.315Z,24.83
2022-09-28T23:25:05.371Z,24.99
2022-09-28T23:27:10.257Z,24.79
2022-09-28T23:29:14.673Z,25.04
2022-09-28T23:31:20.101Z,24.95
2022-09-28T23:33:23.967Z,25.22
2022-09-28T23:35:27.484Z,25.20
2022-09-28T23:37:31.453Z,25.23
2022-09-28T23:39:34.899Z,25.21
2022-09-28T23:41:39.248Z,25.48
2022-09-28T23:43:42.725Z,25.85
2022-09-28T23:45:46.837Z,25.45
2022-09-28T23:47:50.559Z,25.77
2022-09-28T23:49:54.116Z,26.55
2022-09-28T23:51:57.791Z,26.42
2022-09-28T23:54:05.061Z,26.80
2022-09-28T23:56:08.451Z,27.12
2022-09-28T23:58:12.786Z,27.46
